Time;durP1;ratioP1;P1;durP2;ratioP2;P2;SDS_P1;SDS_P2;PMS_P1;PMS_P2;Temp;Humidity;BMP_temperature;BMP_pressure;BME280_temperature;BME280_humidity;BME280_pressure;Samples;Min_cycle;Max_cycle;Signal;HPM_P1;HPM_P2
2021/12/26 00:00:09;;;;;;;3.65;2.53;;;14.50;61.10;;;;;;4109536;28;20134;-60
2021/12/26 00:02:31;;;;;;;4.82;3.03;;;14.50;61.00;;;;;;4111235;28;20523;-60
2021/12/26 00:04:53;;;;;;;2.95;2.75;;;14.50;61.20;;;;;;4110460;28;20042;-60
2021/12/26 00:07:17;;;;;;;6.03;3.22;;;14.50;61.40;;;;;;4110675;28;20046;-60
2021/12/26 00:09:39;;;;;;;4.95;3.22;;;14.50;61.40;;;;;;4110312;28;20487;-60
2021/12/26 00:12:01;;;;;;;3.78;2.95;;;14.40;61.40;;;;;;4111342;28;22127;-60
2021/12/26 00:14:23;;;;;;;3.85;2.92;;;14.40;61.40;;;;;;4110934;28;20117;-60
2021/12/26 00:16:45;;;;;;;5.60;3.65;;;14.30;61.40;;;;;;4110853;28;20039;-60
2021/12/26 00:19:07;;;;;;;4.70;2.80;;;14.30;61.40;;;;;;4110659;28;20054;-60
2021/12/26 00:21:29;;;;;;;7.32;2.95;;;14.20;61.60;;;;;;4108608;28;20038;-60
2021/12/26 00:23:53;;;;;;;4.20;2.67;;;14.20;62.20;;;;;;4110540;28;20053;-60
2021/12/26 00:26:16;;;;;;;5.32;3.47;;;14.30;62.60;;;;;;4111230;28;20539;-60
2021/12/26 00:28:38;;;;;;;4.10;3.13;;;14.30;62.20;;;;;;4110250;28;20061;-60
2021/12/26 00:31:01;;;;;;;5.25;3.20;;;14.40;61.80;;;;;;4110587;28;20077;-60
2021/12/26 00:33:23;;;;;;;3.00;2.75;;;14.50;61.60;;;;;;4109093;28;20133;-61
2021/12/26 00:35:46;;;;;;;4.47;3.20;;;14.60;61.30;;;;;;4110848;28;20042;-60
2021/12/26 00:38:09;;;;;;;3.30;2.90;;;14.60;60.90;;;;;;4108371;28;20050;-60
2021/12/26 00:40:33;;;;;;;2.92;2.55;;;14.50;60.70;;;;;;4099858;28;20070;-59
2021/12/26 00:42:56;;;;;;;4.03;3.13;;;14.50;60.80;;;;;;4123010;28;20042;-60
2021/12/26 00:45:19;;;;;;;4.85;3.03;;;14.50;61.30;;;;;;4123112;28;20050;-60
2021/12/26 00:47:41;;;;;;;4.18;2.45;;;14.50;61.20;;;;;;4108858;28;20138;-60
2021/12/26 00:50:06;;;;;;;3.83;3.17;;;14.60;60.90;;;;;;4110621;28;20237;-60
2021/12/26 00:52:28;;;;;;;4.72;3.30;;;14.70;60.60;;;;;;4110403;28;20129;-60
2021/12/26 00:54:50;;;;;;;6.13;3.08;;;14.70;60.50;;;;;;4094730;28;20736;-59
2021/12/26 00:57:13;;;;;;;4.50;3.03;;;14.70;60.50;;;;;;4094828;28;20055;-59
2021/12/26 00:59:35;;;;;;;3.75;2.90;;;14.90;60.50;;;;;;4110044;28;20546;-60
2021/12/26 01:01:57;;;;;;;2.78;2.40;;;15.00;56.70;;;;;;4110642;28;20411;-60
2021/12/26 01:04:19;;;;;;;3.53;3.05;;;15.00;54.20;;;;;;4111404;28;20051;-60
2021/12/26 01:06:44;;;;;;;3.72;2.72;;;15.10;55.80;;;;;;4113303;28;20419;-60
2021/12/26 01:09:10;;;;;;;3.10;2.80;;;15.00;55.60;;;;;;4113091;28;20059;-60
2021/12/26 01:11:36;;;;;;;3.15;2.88;;;15.00;53.20;;;;;;4113394;28;20422;-60
2021/12/26 01:14:00;;;;;;;3.30;2.60;;;14.90;50.70;;;;;;4112468;28;20058;-60
2021/12/26 01:17:04;;;;;;;4.38;3.40;;;14.80;52.10;;;;;;4108094;28;20382;-60
2021/12/26 01:19:32;;;;;;;5.10;3.42;;;14.60;49.30;;;;;;4111581;28;20109;-60
2021/12/26 01:21:55;;;;;;;4.72;3.53;;;14.50;52.00;;;;;;4108305;28;20054;-60
2021/12/26 01:24:18;;;;;;;5.88;3.47;;;14.50;49.50;;;;;;4112046;28;20351;-60
2021/12/26 01:26:41;;;;;;;3.92;3.53;;;14.40;49.20;;;;;;4113153;28;20078;-59
2021/12/26 01:29:09;;;;;;;5.28;3.40;;;14.40;47.60;;;;;;4111314;28;20042;-60
2021/12/26 01:31:35;;;;;;;4.35;3.10;;;14.30;46.90;;;;;;4125862;28;20054;-60
2021/12/26 01:34:11;;;;;;;5.15;3.80;;;14.30;48.40;;;;;;4111756;28;20058;-60
2021/12/26 01:36:51;;;;;;;4.05;2.85;;;14.30;47.70;;;;;;4113211;28;20067;-60
2021/12/26 01:39:41;;;;;;;2.95;2.67;;;14.30;47.50;;;;;;4109933;28;20963;-60
2021/12/26 01:42:10;;;;;;;2.55;2.35;;;14.40;49.10;;;;;;4115013;28;20057;-58
2021/12/26 01:44:52;;;;;;;3.20;2.47;;;14.50;50.00;;;;;;4112636;28;20058;-58
2021/12/26 01:47:17;;;;;;;3.35;2.35;;;14.50;49.80;;;;;;4124849;28;20050;-59
2021/12/26 01:49:39;;;;;;;4.22;2.65;;;14.60;48.50;;;;;;4111409;28;20050;-59
2021/12/26 01:52:03;;;;;;;2.30;2.10;;;14.70;46.70;;;;;;4125438;28;20100;-58
2021/12/26 01:54:31;;;;;;;3.95;2.38;;;14.70;48.90;;;;;;4125568;28;20610;-58
2021/12/26 01:56:53;;;;;;;6.32;2.30;;;14.80;53.20;;;;;;4125321;28;20137;-59
2021/12/26 01:59:15;;;;;;;3.60;2.55;;;14.90;55.40;;;;;;4124587;28;20061;-59
2021/12/26 02:01:43;;;;;;;3.25;2.13;;;15.00;52.70;;;;;;4111014;28;20047;-59
2021/12/26 02:04:06;;;;;;;2.97;2.38;;;15.20;52.30;;;;;;4112673;28;20063;-58
2021/12/26 02:06:29;;;;;;;3.05;2.42;;;15.30;52.30;;;;;;4124971;28;20050;-58
2021/12/26 02:08:51;;;;;;;2.55;2.22;;;15.30;54.00;;;;;;4111496;28;20049;-58
2021/12/26 02:11:13;;;;;;;3.17;2.88;;;15.30;53.70;;;;;;4096606;28;20420;-59
2021/12/26 02:13:37;;;;;;;3.42;2.53;;;15.20;52.70;;;;;;4112489;28;20133;-59
2021/12/26 02:16:01;;;;;;;2.85;2.63;;;15.10;52.80;;;;;;4109828;28;20054;-59
2021/12/26 02:18:25;;;;;;;3.40;2.65;;;15.10;54.40;;;;;;4111165;28;20130;-59
2021/12/26 02:21:04;;;;;;;3.25;2.58;;;15.10;55.50;;;;;;4124463;28;20057;-58
2021/12/26 02:23:46;;;;;;;2.90;2.60;;;15.10;55.90;;;;;;4111204;28;20479;-58
2021/12/26 02:28:49;;;;;;;4.53;2.78;;;15.10;56.20;;;;;;4111960;28;20050;-59
2021/12/26 02:31:12;;;;;;;2.80;2.60;;;15.00;56.00;;;;;;4110764;28;20078;-59
2021/12/26 02:33:35;;;;;;;2.85;2.38;;;15.00;55.80;;;;;;4110992;28;20054;-59
2021/12/26 02:35:58;;;;;;;4.00;2.38;;;14.90;56.30;;;;;;4124600;28;20050;-58
2021/12/26 02:38:21;;;;;;;2.85;2.58;;;14.90;53.20;;;;;;4112203;28;20134;-58
2021/12/26 02:40:46;;;;;;;3.15;2.28;;;14.80;53.50;;;;;;4108777;28;20042;-58
2021/12/26 02:43:09;;;;;;;2.55;2.30;;;14.90;53.80;;;;;;4108430;28;20050;-58
2021/12/26 02:45:32;;;;;;;2.28;2.08;;;14.90;55.70;;;;;;4096209;28;20098;-59
2021/12/26 02:47:55;;;;;;;4.45;2.50;;;14.90;56.00;;;;;;4108606;28;20046;-57
2021/12/26 02:50:20;;;;;;;2.28;2.08;;;15.00;53.00;;;;;;4096127;28;20070;-58
2021/12/26 02:52:44;;;;;;;2.17;2.08;;;15.10;52.80;;;;;;4111284;28;20053;-58
2021/12/26 02:55:08;;;;;;;3.42;2.70;;;15.20;52.30;;;;;;4124314;28;20503;-58
2021/12/26 02:57:30;;;;;;;3.13;2.17;;;15.20;51.50;;;;;;4111172;28;20077;-58
2021/12/26 02:59:52;;;;;;;2.90;2.60;;;15.20;49.70;;;;;;4124369;28;20450;-59
2021/12/26 03:02:14;;;;;;;2.50;2.30;;;15.20;52.10;;;;;;4123500;28;20047;-59
2021/12/26 03:04:37;;;;;;;2.17;2.00;;;15.10;52.90;;;;;;4109922;28;20560;-58
2021/12/26 03:07:02;;;;;;;2.85;2.65;;;14.90;53.50;;;;;;4109766;28;20430;-59
2021/12/26 03:09:27;;;;;;;2.92;2.63;;;14.80;48.60;;;;;;4111452;28;20243;-58
2021/12/26 03:11:50;;;;;;;2.80;2.45;;;14.70;48.90;;;;;;4111233;28;20659;-58
2021/12/26 03:14:12;;;;;;;2.63;2.00;;;14.70;50.50;;;;;;4111073;28;20062;-58
2021/12/26 03:16:34;;;;;;;2.90;2.40;;;14.70;53.20;;;;;;4095769;28;20042;-59
2021/12/26 03:18:57;;;;;;;2.92;2.38;;;14.80;53.00;;;;;;4100248;28;20054;-59
2021/12/26 03:21:20;;;;;;;2.22;2.03;;;14.90;54.20;;;;;;4111136;28;20069;-59
2021/12/26 03:23:42;;;;;;;2.75;2.00;;;14.90;53.00;;;;;;4111984;28;20499;-59
2021/12/26 03:26:07;;;;;;;2.28;2.08;;;14.90;50.70;;;;;;4110004;28;20061;-58
2021/12/26 03:28:30;;;;;;;2.33;2.15;;;15.00;50.60;;;;;;4094190;28;20780;-59
2021/12/26 03:30:55;;;;;;;3.28;2.42;;;15.00;50.60;;;;;;4093797;28;20431;-59
2021/12/26 03:33:16;;;;;;;3.50;2.25;;;15.00;49.70;;;;;;4107600;28;20043;-58
2021/12/26 03:35:40;;;;;;;2.33;2.10;;;15.00;49.80;;;;;;4104640;28;20043;-58
2021/12/26 03:38:05;;;;;;;2.25;2.15;;;15.10;51.60;;;;;;4123875;28;20061;-58
2021/12/26 03:40:43;;;;;;;2.80;2.03;;;15.10;52.80;;;;;;4100393;28;20075;-59
2021/12/26 03:43:07;;;;;;;2.60;2.40;;;15.20;51.00;;;;;;4110033;28;20054;-58
2021/12/26 03:45:34;;;;;;;2.70;2.28;;;15.30;49.40;;;;;;4109920;28;20138;-58
2021/12/26 03:47:57;;;;;;;3.08;2.40;;;15.40;48.30;;;;;;4110029;28;20047;-59
2021/12/26 03:50:20;;;;;;;2.92;2.30;;;15.40;46.70;;;;;;4123289;28;20054;-59
2021/12/26 03:52:42;;;;;;;2.67;2.15;;;15.30;44.50;;;;;;4110042;28;20127;-58
2021/12/26 03:55:05;;;;;;;3.15;2.67;;;15.30;44.90;;;;;;4123629;28;20409;-59
2021/12/26 03:57:27;;;;;;;3.40;2.72;;;15.20;46.40;;;;;;4109794;28;20046;-58
2021/12/26 03:59:51;;;;;;;3.17;2.40;;;15.10;47.00;;;;;;4109938;28;20058;-58
2021/12/26 04:02:15;;;;;;;2.10;1.90;;;15.00;45.50;;;;;;4123619;28;20494;-58
2021/12/26 04:04:38;;;;;;;3.10;2.42;;;14.80;45.20;;;;;;4123214;28;20053;-58
2021/12/26 04:07:00;;;;;;;2.88;2.45;;;14.70;44.70;;;;;;4110101;28;20430;-58
2021/12/26 04:09:22;;;;;;;2.30;2.10;;;14.60;46.30;;;;;;4109175;28;20050;-58
2021/12/26 04:11:45;;;;;;;2.58;2.30;;;14.50;46.00;;;;;;4109508;28;20486;-58
2021/12/26 04:14:08;;;;;;;3.78;2.00;;;14.40;44.20;;;;;;4110757;28;20146;-59
2021/12/26 04:16:31;;;;;;;3.30;2.47;;;14.40;48.50;;;;;;4122357;28;20479;-59
2021/12/26 04:18:53;;;;;;;3.17;2.40;;;14.40;46.00;;;;;;4109467;28;20055;-59
2021/12/26 04:21:15;;;;;;;3.53;1.90;;;14.40;46.30;;;;;;4123532;28;20070;-59
2021/12/26 04:23:47;;;;;;;3.97;2.13;;;14.50;43.60;;;;;;4109018;28;20050;-58
2021/12/26 04:26:09;;;;;;;3.60;2.17;;;14.50;46.70;;;;;;4109733;28;20062;-58
2021/12/26 04:28:31;;;;;;;2.28;2.05;;;14.60;44.20;;;;;;4122931;28;20038;-59
2021/12/26 04:30:54;;;;;;;2.63;2.42;;;14.70;41.20;;;;;;4123294;28;20395;-58
2021/12/26 04:33:18;;;;;;;2.15;1.98;;;14.70;43.80;;;;;;4123464;28;20042;-58
2021/12/26 04:35:40;;;;;;;3.50;2.17;;;14.70;42.30;;;;;;4109580;28;20073;-58
2021/12/26 04:38:04;;;;;;;2.92;1.70;;;14.80;44.60;;;;;;4110406;28;20042;-59
2021/12/26 04:40:26;;;;;;;2.20;2.10;;;14.90;45.40;;;;;;4112113;28;20054;-58
2021/12/26 04:43:15;;;;;;;2.60;2.38;;;14.90;45.70;;;;;;4103434;28;20131;-58
2021/12/26 04:45:48;;;;;;;2.20;2.00;;;15.00;46.70;;;;;;4111933;28;20502;-58
2021/12/26 04:48:30;;;;;;;2.35;2.15;;;15.10;43.90;;;;;;4114655;28;20051;-58
2021/12/26 04:50:52;;;;;;;2.55;1.92;;;15.10;46.30;;;;;;4112976;28;20047;-59
2021/12/26 04:53:14;;;;;;;3.33;1.95;;;15.10;50.20;;;;;;4096838;28;20043;-59
2021/12/26 04:55:37;;;;;;;2.83;2.28;;;15.20;48.20;;;;;;4115056;28;20042;-58
2021/12/26 04:57:59;;;;;;;3.80;2.30;;;15.30;50.40;;;;;;4126098;28;20532;-58
2021/12/26 05:00:23;;;;;;;2.08;1.98;;;15.40;51.70;;;;;;4126347;28;20050;-58
2021/12/26 05:02:47;;;;;;;2.38;2.17;;;15.50;51.60;;;;;;4126273;28;20054;-59
2021/12/26 05:05:11;;;;;;;2.55;2.10;;;15.50;50.10;;;;;;4096361;28;20499;-59
2021/12/26 05:07:34;;;;;;;2.25;2.10;;;15.50;49.30;;;;;;4110120;28;20046;-58
2021/12/26 05:09:56;;;;;;;3.85;2.38;;;15.40;48.80;;;;;;4104412;28;20051;-59
2021/12/26 05:12:18;;;;;;;2.35;1.77;;;15.20;51.10;;;;;;4112152;28;20081;-59
2021/12/26 05:14:39;;;;;;;2.28;1.80;;;15.10;52.20;;;;;;4113858;28;20050;-58
2021/12/26 05:17:02;;;;;;;5.20;2.38;;;15.00;53.30;;;;;;4113206;28;20471;-59
2021/12/26 05:19:24;;;;;;;3.00;2.00;;;15.00;53.80;;;;;;4125672;28;20052;-59
2021/12/26 05:21:48;;;;;;;2.45;2.08;;;15.10;53.90;;;;;;4125800;28;20046;-58
2021/12/26 05:24:10;;;;;;;3.25;2.00;;;15.20;53.90;;;;;;4112211;28;20047;-59
2021/12/26 05:26:32;;;;;;;4.22;2.35;;;15.20;46.80;;;;;;4113681;28;20626;-59
2021/12/26 05:28:55;;;;;;;2.17;1.98;;;15.20;43.90;;;;;;4111147;28;20055;-59
2021/12/26 05:31:18;;;;;;;2.88;2.17;;;15.10;44.50;;;;;;4125678;28;20050;-59
2021/12/26 05:33:40;;;;;;;2.95;2.10;;;15.00;46.30;;;;;;4125674;28;20517;-59
2021/12/26 05:36:02;;;;;;;2.45;2.15;;;15.00;46.10;;;;;;4111965;28;20050;-59
2021/12/26 05:38:30;;;;;;;2.60;2.13;;;15.00;45.30;;;;;;4125429;28;20138;-58
2021/12/26 05:40:52;;;;;;;2.83;2.33;;;15.00;42.60;;;;;;4112619;28;20053;-59
2021/12/26 05:43:14;;;;;;;2.05;1.90;;;15.10;39.50;;;;;;4125609;28;20070;-57
2021/12/26 05:45:38;;;;;;;2.30;2.13;;;15.10;43.60;;;;;;4124954;28;20185;-59
2021/12/26 05:48:18;;;;;;;2.60;2.13;;;15.20;41.20;;;;;;4125240;28;20057;-59
2021/12/26 05:50:41;;;;;;;4.28;2.20;;;15.20;41.20;;;;;;4110884;28;20065;-58
2021/12/26 05:53:23;;;;;;;2.75;2.10;;;15.20;46.70;;;;;;4112363;28;20469;-58
2021/12/26 05:55:47;;;;;;;3.20;2.30;;;15.20;47.50;;;;;;4125073;28;20077;-58
2021/12/26 05:58:09;;;;;;;2.80;2.60;;;15.20;45.60;;;;;;4113000;28;20047;-58
2021/12/26 06:00:31;;;;;;;2.38;2.17;;;15.20;47.40;;;;;;4111240;28;20043;-58
2021/12/26 06:02:54;;;;;;;2.80;2.00;;;15.10;47.70;;;;;;4125286;28;20390;-58
2021/12/26 06:05:16;;;;;;;2.30;2.10;;;15.10;48.50;;;;;;4112583;28;20054;-58
2021/12/26 06:07:39;;;;;;;2.35;2.15;;;15.10;50.40;;;;;;4112734;28;20043;-59
2021/12/26 06:10:01;;;;;;;2.70;2.35;;;15.10;50.90;;;;;;4112741;28;20514;-59
2021/12/26 06:12:25;;;;;;;3.95;2.35;;;15.00;49.60;;;;;;4124984;28;20078;-59
2021/12/26 06:14:47;;;;;;;2.40;2.20;;;15.00;50.30;;;;;;4111769;28;20054;-59
2021/12/26 06:17:10;;;;;;;3.72;2.30;;;14.80;51.00;;;;;;4124895;28;20073;-58
2021/12/26 06:20:01;;;;;;;2.63;2.42;;;14.80;52.10;;;;;;4110362;28;20063;-59
2021/12/26 06:22:27;;;;;;;2.80;2.50;;;14.80;51.40;;;;;;4111298;28;20054;-58
2021/12/26 06:25:09;;;;;;;4.10;2.47;;;14.80;52.70;;;;;;4112232;28;20055;-59
2021/12/26 06:27:59;;;;;;;2.20;2.10;;;14.80;53.10;;;;;;4110473;28;20043;-58
2021/12/26 06:30:21;;;;;;;3.30;2.25;;;14.90;53.60;;;;;;4112544;28;20082;-58
2021/12/26 06:32:52;;;;;;;2.78;2.60;;;15.00;53.00;;;;;;4111831;28;20193;-58
2021/12/26 06:35:40;;;;;;;3.15;2.10;;;15.20;53.20;;;;;;4111528;28;20050;-58
2021/12/26 06:38:21;;;;;;;3.15;2.08;;;15.30;52.90;;;;;;4112336;28;20137;-58
2021/12/26 06:41:01;;;;;;;2.45;2.25;;;15.40;52.60;;;;;;4112165;28;20055;-59
2021/12/26 06:43:44;;;;;;;2.67;2.40;;;15.40;52.70;;;;;;4112122;28;20047;-58
2021/12/26 06:46:40;;;;;;;2.53;2.33;;;15.30;45.80;;;;;;4124212;28;20437;-58
2021/12/26 06:49:09;;;;;;;2.72;2.47;;;15.30;47.50;;;;;;4109899;28;20046;-59
2021/12/26 06:51:32;;;;;;;3.08;2.78;;;15.20;42.70;;;;;;4124377;28;20078;-59
2021/12/26 06:53:55;;;;;;;3.80;2.88;;;15.10;45.10;;;;;;4124188;28;20446;-59
2021/12/26 06:56:17;;;;;;;2.28;2.03;;;14.90;49.70;;;;;;4124537;28;20046;-58
2021/12/26 06:58:39;;;;;;;3.97;2.85;;;14.90;51.70;;;;;;4111992;28;20109;-58
2021/12/26 07:01:03;;;;;;;2.58;2.10;;;14.90;52.30;;;;;;4112528;28;20061;-58
2021/12/26 07:03:25;;;;;;;2.47;2.28;;;14.90;52.10;;;;;;4124184;28;20461;-59
2021/12/26 07:05:47;;;;;;;2.78;2.47;;;14.90;52.70;;;;;;4110828;28;20058;-59
2021/12/26 07:08:14;;;;;;;3.00;2.80;;;15.00;52.60;;;;;;4124233;28;20121;-59
2021/12/26 07:10:50;;;;;;;3.08;2.88;;;15.10;52.90;;;;;;4124197;28;20050;-58
2021/12/26 07:13:12;;;;;;;2.70;2.50;;;15.20;51.80;;;;;;4110326;28;20093;-58
2021/12/26 07:15:37;;;;;;;3.83;2.95;;;15.30;46.80;;;;;;4112037;28;20075;-58
2021/12/26 07:18:01;;;;;;;2.67;2.47;;;15.30;48.70;;;;;;4124131;28;20565;-58
2021/12/26 07:20:29;;;;;;;5.75;2.40;;;15.30;47.50;;;;;;4110054;28;20058;-58
2021/12/26 07:23:09;;;;;;;2.78;2.25;;;15.30;48.10;;;;;;4111466;28;20374;-59
2021/12/26 07:25:33;;;;;;;3.47;2.53;;;15.30;48.20;;;;;;4109894;28;20221;-57
2021/12/26 07:27:57;;;;;;;4.97;2.60;;;15.40;50.30;;;;;;4123528;28;20057;-56
2021/12/26 07:30:37;;;;;;;2.95;2.75;;;15.40;48.80;;;;;;4111255;28;20403;-57
2021/12/26 07:33:01;;;;;;;4.65;2.75;;;15.40;43.60;;;;;;4109516;28;20146;-58
2021/12/26 07:35:24;;;;;;;4.55;2.95;;;15.40;43.80;;;;;;4110432;28;20442;-58
2021/12/26 07:37:56;;;;;;;3.15;2.85;;;15.30;46.50;;;;;;4109255;28;20055;-57
2021/12/26 07:40:18;;;;;;;4.95;3.17;;;15.30;50.10;;;;;;4109589;28;20047;-57
2021/12/26 07:42:41;;;;;;;2.67;2.47;;;15.30;51.20;;;;;;4109890;28;20051;-57
2021/12/26 07:45:42;;;;;;;4.57;3.10;;;15.30;51.80;;;;;;4106198;28;20159;-56
2021/12/26 07:48:07;;;;;;;3.20;2.90;;;15.40;51.30;;;;;;4092551;28;20055;-58
2021/12/26 07:50:30;;;;;;;3.33;3.03;;;15.40;49.20;;;;;;4105326;28;20055;-59
2021/12/26 07:53:11;;;;;;;3.72;3.25;;;15.40;45.20;;;;;;4111234;28;20050;-59
2021/12/26 07:55:52;;;;;;;3.42;3.22;;;15.40;46.00;;;;;;4110985;28;20507;-57
2021/12/26 07:58:34;;;;;;;5.43;3.72;;;15.30;43.30;;;;;;4110741;28;20124;-59
2021/12/26 08:01:14;;;;;;;;;;;15.20;47.00;;;;;;4111196;28;20059;-58
2021/12/26 08:03:49;;;;;;;3.40;3.10;;;15.20;49.50;;;;;;4093802;28;19930;-58
2021/12/26 08:06:43;;;;;;;3.92;3.35;;;15.10;50.50;;;;;;4096915;28;20101;-58
2021/12/26 08:09:06;;;;;;;3.83;2.88;;;15.00;45.10;;;;;;4123339;28;20510;-58
2021/12/26 08:11:28;;;;;;;3.85;3.47;;;15.00;47.70;;;;;;4111218;28;20133;-59
2021/12/26 08:13:50;;;;;;;3.42;3.03;;;15.10;50.20;;;;;;4122529;28;20077;-58
2021/12/26 08:16:13;;;;;;;3.42;3.22;;;15.10;51.50;;;;;;4122480;28;20534;-59
2021/12/26 08:18:35;;;;;;;3.33;3.00;;;15.20;52.60;;;;;;4110443;28;20046;-58
2021/12/26 08:20:59;;;;;;;4.22;3.55;;;15.20;52.10;;;;;;4102515;28;20051;-59
2021/12/26 08:23:21;;;;;;;3.65;3.35;;;15.30;51.90;;;;;;4095845;28;20109;-58
2021/12/26 08:25:45;;;;;;;3.67;3.38;;;15.40;51.40;;;;;;4110659;28;20046;-59
2021/12/26 08:28:07;;;;;;;5.70;3.70;;;15.50;51.70;;;;;;4109773;28;20043;-59
2021/12/26 08:30:30;;;;;;;4.05;3.15;;;15.60;51.50;;;;;;4110115;28;20055;-59
2021/12/26 08:32:54;;;;;;;4.57;3.78;;;15.70;50.20;;;;;;4110580;28;20051;-58
2021/12/26 08:35:16;;;;;;;4.55;3.97;;;15.70;49.30;;;;;;4109562;28;20077;-58
2021/12/26 08:37:41;;;;;;;3.45;3.20;;;15.60;45.90;;;;;;4111087;28;20061;-59
2021/12/26 08:40:04;;;;;;;3.40;3.10;;;15.50;45.00;;;;;;4110444;28;20061;-59
2021/12/26 08:42:27;;;;;;;3.65;3.17;;;15.40;44.20;;;;;;4119797;28;20145;-59
2021/12/26 08:44:49;;;;;;;4.18;3.33;;;15.30;48.30;;;;;;4118705;28;20066;-58
2021/12/26 08:47:12;;;;;;;4.97;3.90;;;15.20;48.20;;;;;;4115952;28;20066;-58
2021/12/26 08:49:34;;;;;;;4.43;3.33;;;15.10;49.90;;;;;;4110680;28;20444;-59
2021/12/26 08:51:56;;;;;;;4.40;3.15;;;15.10;51.20;;;;;;4109695;28;20533;-58
2021/12/26 08:54:22;;;;;;;4.30;3.30;;;15.20;51.90;;;;;;4110505;28;20052;-59
2021/12/26 08:56:45;;;;;;;3.72;3.42;;;15.30;51.80;;;;;;4116921;28;20479;-59
2021/12/26 08:59:08;;;;;;;3.90;3.50;;;15.30;51.90;;;;;;4126728;28;20061;-58
2021/12/26 09:01:30;;;;;;;4.45;3.20;;;15.30;52.00;;;;;;4094863;28;20414;-59
2021/12/26 09:03:52;;;;;;;3.22;2.92;;;15.30;51.90;;;;;;4099363;28;20158;-59
2021/12/26 09:06:14;;;;;;;4.38;2.95;;;15.30;52.10;;;;;;4109479;28;20059;-59
2021/12/26 09:08:37;;;;;;;3.83;3.15;;;15.30;52.10;;;;;;4101849;28;20054;-60
2021/12/26 09:11:00;;;;;;;3.35;3.05;;;15.30;52.40;;;;;;4108924;28;20055;-59
2021/12/26 09:13:22;;;;;;;3.05;2.75;;;15.40;52.60;;;;;;4117317;28;20054;-59
2021/12/26 09:15:44;;;;;;;3.13;2.83;;;15.40;52.50;;;;;;4126557;28;20113;-59
2021/12/26 09:18:06;;;;;;;5.20;3.20;;;15.50;52.20;;;;;;4121699;28;20046;-59
2021/12/26 09:20:29;;;;;;;3.92;2.90;;;15.50;51.90;;;;;;4109202;28;20050;-59
2021/12/26 09:22:50;;;;;;;3.80;2.95;;;15.50;51.90;;;;;;4106893;28;20055;-58
2021/12/26 09:25:13;;;;;;;3.55;3.08;;;15.40;51.90;;;;;;4115158;28;20093;-59
2021/12/26 09:27:37;;;;;;;2.95;2.63;;;15.30;52.20;;;;;;4119397;28;20055;-58
2021/12/26 09:29:59;;;;;;;4.75;3.17;;;15.20;51.70;;;;;;4112781;28;20086;-59
2021/12/26 09:32:21;;;;;;;3.22;2.90;;;15.10;52.20;;;;;;4113134;28;20073;-58
2021/12/26 09:34:43;;;;;;;3.63;2.67;;;15.00;53.10;;;;;;4118970;28;20046;-59
2021/12/26 09:37:07;;;;;;;4.43;2.95;;;15.20;53.30;;;;;;4125782;28;20054;-59
2021/12/26 09:39:29;;;;;;;4.05;2.60;;;15.60;53.00;;;;;;4126850;28;20121;-59
2021/12/26 09:41:52;;;;;;;3.15;2.75;;;16.30;51.70;;;;;;4126788;28;20042;-60
2021/12/26 09:44:15;;;;;;;3.75;3.22;;;17.00;50.20;;;;;;4127007;28;20046;-59
2021/12/26 09:46:38;;;;;;;6.97;3.10;;;17.70;48.50;;;;;;4125681;28;20509;-59
2021/12/26 09:49:00;;;;;;;4.60;2.97;;;18.40;47.00;;;;;;4110487;28;57534;-59
2021/12/26 09:51:23;;;;;;;3.05;2.75;;;19.10;45.60;;;;;;4122323;28;20054;-59
2021/12/26 09:53:46;;;;;;;4.72;3.38;;;19.60;44.40;;;;;;4125873;28;20406;-59
2021/12/26 09:56:10;;;;;;;4.35;3.10;;;20.10;43.00;;;;;;4110111;28;20081;-59
2021/12/26 09:58:33;;;;;;;3.83;3.20;;;20.40;42.40;;;;;;4109719;28;20613;-60
2021/12/26 10:00:57;;;;;;;3.90;3.20;;;20.70;42.10;;;;;;4110321;28;20054;-59
2021/12/26 10:03:23;;;;;;;3.38;2.70;;;20.80;42.50;;;;;;4109768;28;21051;-59
2021/12/26 10:06:09;;;;;;;3.03;2.83;;;20.80;41.70;;;;;;4110118;28;20360;-59
2021/12/26 10:08:37;;;;;;;4.70;3.13;;;20.70;41.40;;;;;;4109155;28;20107;-59
2021/12/26 10:11:08;;;;;;;5.75;3.67;;;20.40;42.20;;;;;;4113153;28;20129;-59
2021/12/26 10:13:43;;;;;;;4.18;3.17;;;20.00;42.70;;;;;;4113308;28;20050;-59
2021/12/26 10:16:08;;;;;;;3.60;3.30;;;19.60;43.70;;;;;;4109429;28;20076;-59
2021/12/26 10:18:31;;;;;;;3.88;3.47;;;19.30;44.70;;;;;;4111872;28;20050;-59
2021/12/26 10:20:55;;;;;;;3.58;3.28;;;19.00;45.40;;;;;;4122349;28;20054;-57
2021/12/26 10:23:25;;;;;;;3.38;2.90;;;18.80;45.80;;;;;;4112540;28;20054;-59
2021/12/26 10:25:49;;;;;;;4.35;3.50;;;18.80;45.60;;;;;;4109056;28;20170;-59
2021/12/26 10:28:13;;;;;;;5.10;3.10;;;18.80;45.30;;;;;;4120208;28;20105;-59
2021/12/26 10:30:43;;;;;;;3.50;3.05;;;18.80;45.80;;;;;;4124801;28;20465;-59
2021/12/26 10:33:08;;;;;;;3.77;3.47;;;18.80;44.90;;;;;;4123325;28;20404;-59
2021/12/26 10:35:31;;;;;;;3.53;2.65;;;18.90;45.70;;;;;;4123439;28;20537;-59
2021/12/26 10:37:54;;;;;;;3.00;2.78;;;19.00;45.40;;;;;;4123472;28;20104;-60
2021/12/26 10:40:21;;;;;;;3.97;3.15;;;19.10;45.30;;;;;;4112398;28;20051;-59
2021/12/26 10:42:47;;;;;;;3.40;3.13;;;19.30;45.10;;;;;;4110605;28;20050;-59
2021/12/26 10:45:16;;;;;;;4.90;2.83;;;19.30;45.00;;;;;;4112672;28;20092;-59
2021/12/26 10:47:41;;;;;;;3.60;3.30;;;19.50;44.90;;;;;;4109077;28;20372;-59
2021/12/26 10:50:09;;;;;;;4.30;3.40;;;19.50;44.80;;;;;;4108660;28;20467;-59
2021/12/26 10:52:34;;;;;;;3.65;3.30;;;19.60;44.80;;;;;;4118587;28;20113;-59
2021/12/26 10:55:00;;;;;;;3.28;2.97;;;19.60;44.70;;;;;;4108912;28;20432;-59
2021/12/26 10:57:27;;;;;;;4.45;3.20;;;19.60;44.60;;;;;;4109494;28;20097;-59
2021/12/26 11:00:01;;;;;;;4.35;3.95;;;19.60;44.70;;;;;;4109113;28;20101;-59
2021/12/26 11:02:27;;;;;;;3.17;2.92;;;19.60;44.90;;;;;;4110648;28;20121;-59
2021/12/26 11:05:02;;;;;;;4.50;3.20;;;19.60;45.00;;;;;;4124256;28;20050;-59
2021/12/26 11:07:26;;;;;;;3.67;3.38;;;19.50;44.90;;;;;;4124177;28;20105;-60
2021/12/26 11:10:03;;;;;;;4.65;3.17;;;19.50;44.60;;;;;;4124246;28;20494;-59
2021/12/26 11:12:38;;;;;;;4.05;3.40;;;19.50;45.00;;;;;;4107912;28;20101;-59
2021/12/26 11:15:03;;;;;;;3.67;3.30;;;19.50;45.20;;;;;;4115848;28;20105;-59
2021/12/26 11:17:30;;;;;;;7.05;3.33;;;19.50;45.30;;;;;;4108022;28;20105;-59
2021/12/26 11:19:54;;;;;;;4.43;3.88;;;19.50;45.20;;;;;;4119581;28;20129;-59
2021/12/26 11:22:17;;;;;;;3.17;2.80;;;19.50;45.20;;;;;;4108585;28;21070;-58
2021/12/26 11:24:42;;;;;;;4.18;3.00;;;19.40;45.10;;;;;;4108692;28;20058;-59
2021/12/26 11:27:06;;;;;;;3.90;3.28;;;19.40;45.40;;;;;;4109200;28;20106;-59
2021/12/26 11:29:29;;;;;;;9.45;3.47;;;19.30;45.60;;;;;;4116654;28;20803;-59
2021/12/26 11:31:54;;;;;;;3.35;3.10;;;19.30;45.90;;;;;;4123411;28;20050;-59
2021/12/26 11:34:17;;;;;;;3.45;3.13;;;19.20;45.80;;;;;;4124013;28;20050;-59
2021/12/26 11:36:41;;;;;;;6.93;3.60;;;19.20;45.80;;;;;;4112859;28;20450;-59
2021/12/26 11:39:21;;;;;;;4.63;3.03;;;19.10;45.70;;;;;;4110481;28;20100;-59
2021/12/26 11:42:29;;;;;;;4.85;3.00;;;19.00;44.10;;;;;;4110669;28;20055;-59
2021/12/26 11:45:20;;;;;;;4.03;3.08;;;18.80;43.30;;;;;;4121293;28;20046;-58
2021/12/26 11:48:42;;;;;;;3.42;3.13;;;18.60;45.90;;;;;;4121662;28;20900;-59
2021/12/26 11:51:53;;;;;;;3.95;3.10;;;18.50;45.80;;;;;;4106554;28;20058;-59
2021/12/26 11:54:54;;;;;;;4.22;2.97;;;18.50;45.10;;;;;;4118925;28;20442;-59
2021/12/26 11:57:53;;;;;;;3.42;3.13;;;18.60;44.60;;;;;;4115611;28;20050;-59
2021/12/26 12:00:20;;;;;;;3.42;3.03;;;18.80;46.50;;;;;;4102637;28;20122;-59
2021/12/26 12:02:46;;;;;;;4.13;3.40;;;19.00;46.40;;;;;;4123597;28;20050;-59
2021/12/26 12:05:18;;;;;;;3.22;2.92;;;19.20;45.40;;;;;;4122904;28;20100;-59
2021/12/26 12:07:49;;;;;;;3.85;2.80;;;19.40;42.30;;;;;;4117252;28;20111;-59
2021/12/26 12:10:32;;;;;;;3.42;3.03;;;19.60;41.60;;;;;;4111274;28;20154;-58
2021/12/26 12:12:57;;;;;;;3.70;2.88;;;19.60;42.90;;;;;;4107306;28;20046;-59
2021/12/26 12:15:41;;;;;;;3.17;2.80;;;19.50;42.30;;;;;;4109413;28;20093;-59
2021/12/26 12:18:09;;;;;;;3.15;2.85;;;19.30;43.50;;;;;;4111791;28;20093;-59
2021/12/26 12:20:32;;;;;;;3.63;2.95;;;19.00;44.20;;;;;;4117242;28;20097;-59
2021/12/26 12:23:15;;;;;;;3.40;3.10;;;18.80;46.00;;;;;;4113433;28;20049;-59
2021/12/26 12:25:49;;;;;;;3.55;2.97;;;18.60;46.80;;;;;;4108335;28;20046;-59
2021/12/26 12:28:16;;;;;;;3.55;3.15;;;18.50;47.50;;;;;;4107615;28;20050;-59
2021/12/26 12:30:40;;;;;;;2.97;2.67;;;18.40;47.10;;;;;;4106426;28;20835;-59
2021/12/26 12:33:14;;;;;;;4.28;3.47;;;18.50;47.40;;;;;;4107864;28;20109;-59
2021/12/26 12:35:49;;;;;;;4.50;3.22;;;18.50;47.50;;;;;;4106164;28;20062;-59
2021/12/26 12:38:30;;;;;;;3.58;3.28;;;18.40;47.80;;;;;;4122262;28;20058;-59
2021/12/26 12:41:38;;;;;;;4.05;2.70;;;18.40;47.60;;;;;;4109813;28;20100;-59
2021/12/26 12:44:06;;;;;;;3.28;3.03;;;18.50;48.00;;;;;;4108167;28;20171;-59
2021/12/26 12:46:29;;;;;;;5.15;3.03;;;18.50;47.30;;;;;;4107799;28;20059;-59
2021/12/26 12:49:05;;;;;;;4.40;2.85;;;18.50;48.10;;;;;;4107922;28;20054;-59